createdAt,value
2023-03-16T00:01:41.495Z,100237.51
2023-03-16T00:04:08.483Z,100236.90
2023-03-16T00:06:34.984Z,100238.37
2023-03-16T00:09:01.460Z,100244.36
2023-03-16T00:11:28.311Z,100243.91
2023-03-16T00:13:54.817Z,100246.96
2023-03-16T00:16:21.275Z,100255.67
2023-03-16T00:18:47.903Z,100258.14
2023-03-16T00:21:14.998Z,100255.23
2023-03-16T00:23:41.524Z,100257.16
2023-03-16T00:26:10.010Z,100263.23
2023-03-16T00:28:36.962Z,100264.14
2023-03-16T00:31:09.956Z,100269.01
2023-03-16T00:33:36.487Z,100268.52
2023-03-16T00:36:05.098Z,100268.20
2023-03-16T00:38:37.380Z,100266.43
2023-03-16T00:41:06.500Z,100267.30
2023-03-16T00:43:35.373Z,100272.67
2023-03-16T00:46:01.923Z,100273.73
2023-03-16T00:48:28.401Z,100272.05
2023-03-16T00:50:54.892Z,100275.06
2023-03-16T00:53:21.415Z,100273.23
2023-03-16T00:55:47.932Z,100276.56
2023-03-16T00:58:14.408Z,100282.17
2023-03-16T01:00:40.898Z,100280.02
2023-03-16T01:03:07.407Z,100285.52
2023-03-16T01:05:33.984Z,100288.08
2023-03-16T01:08:00.521Z,100283.52
2023-03-16T01:10:27.383Z,100286.56
2023-03-16T01:12:53.985Z,100287.00
2023-03-16T01:15:20.578Z,100285.02
2023-03-16T01:17:47.035Z,100285.84
2023-03-16T01:20:13.667Z,100284.77
2023-03-16T01:22:40.190Z,100288.15
2023-03-16T01:25:06.959Z,100293.10
2023-03-16T01:27:33.427Z,100291.45
2023-03-16T01:29:59.920Z,100291.20
2023-03-16T01:32:26.451Z,100297.70
2023-03-16T01:34:52.906Z,100297.26
2023-03-16T01:37:19.384Z,100293.08
2023-03-16T01:39:45.874Z,100293.17
2023-03-16T01:42:12.465Z,100293.23
2023-03-16T01:44:55.485Z,100291.58
2023-03-16T01:47:22.380Z,100293.05
2023-03-16T01:49:52.970Z,100300.23
2023-03-16T01:52:22.865Z,100296.58
2023-03-16T01:55:04.135Z,100301.05
2023-03-16T01:57:36.342Z,100302.42
2023-03-16T02:00:11.957Z,100305.80
2023-03-16T02:02:41.012Z,100308.00
2023-03-16T02:05:12.916Z,100310.69
2023-03-16T02:07:58.067Z,100315.46
2023-03-16T02:10:27.533Z,100318.84
2023-03-16T02:12:54.682Z,100317.76
2023-03-16T02:15:21.207Z,100321.32
2023-03-16T02:17:49.593Z,100326.09
2023-03-16T02:20:36.117Z,100326.83
2023-03-16T02:23:04.690Z,100334.83
2023-03-16T02:25:48.355Z,100337.13
2023-03-16T02:28:19.935Z,100341.58
2023-03-16T02:30:47.016Z,100344.34
2023-03-16T02:33:15.878Z,100343.46
2023-03-16T02:35:42.334Z,100353.11
2023-03-16T02:38:08.938Z,100354.25
2023-03-16T02:40:36.036Z,100361.04
2023-03-16T02:43:09.709Z,100364.80
2023-03-16T02:45:58.634Z,100366.70
2023-03-16T02:49:03.692Z,100372.11
2023-03-16T02:51:30.683Z,100372.47
2023-03-16T02:53:57.220Z,100372.71
2023-03-16T02:56:23.932Z,100379.02
2023-03-16T02:58:50.426Z,100383.23
2023-03-16T03:01:16.944Z,100381.95
2023-03-16T03:03:43.586Z,100390.54
2023-03-16T03:06:10.736Z,100388.93
2023-03-16T03:08:37.519Z,100391.05
2023-03-16T03:11:04.126Z,100395.42
2023-03-16T03:13:30.623Z,100396.21
2023-03-16T03:15:57.617Z,100402.48
2023-03-16T03:18:24.107Z,100410.61
2023-03-16T03:20:51.097Z,100413.73
2023-03-16T03:23:17.581Z,100414.46
2023-03-16T03:25:45.328Z,100417.09
2023-03-16T03:28:11.838Z,100422.63
2023-03-16T03:30:38.511Z,100425.98
2023-03-16T03:33:05.327Z,100429.86
2023-03-16T03:35:32.025Z,100430.65
2023-03-16T03:37:58.525Z,100433.98
2023-03-16T03:40:25.407Z,100437.85
2023-03-16T03:42:51.915Z,100433.41
2023-03-16T03:45:18.469Z,100434.52
2023-03-16T03:47:45.107Z,100440.95
2023-03-16T03:50:13.177Z,100441.55
2023-03-16T03:52:39.718Z,100441.92
2023-03-16T03:55:07.083Z,100446.48
2023-03-16T03:57:33.612Z,100445.42
2023-03-16T04:00:00.165Z,100449.52
2023-03-16T04:02:26.726Z,100455.64
2023-03-16T04:04:53.434Z,100458.26
2023-03-16T04:07:19.973Z,100461.55
2023-03-16T04:09:46.528Z,100458.45
2023-03-16T04:12:13.592Z,100464.96
2023-03-16T04:14:40.036Z,100464.90
2023-03-16T04:17:06.591Z,100466.59
2023-03-16T04:19:33.437Z,100466.54
2023-03-16T04:21:59.925Z,100468.93
2023-03-16T04:24:26.533Z,100470.63
2023-03-16T04:26:52.973Z,100474.39
2023-03-16T04:29:20.016Z,100474.36
2023-03-16T04:31:47.044Z,100479.70
2023-03-16T04:34:14.136Z,100477.29
2023-03-16T04:36:40.666Z,100480.34
2023-03-16T04:39:07.173Z,100482.02
2023-03-16T04:41:33.639Z,100484.53
2023-03-16T04:44:00.138Z,100483.95
2023-03-16T04:46:27.063Z,100485.92
2023-03-16T04:48:54.261Z,100494.83
2023-03-16T04:51:20.771Z,100495.77
2023-03-16T04:53:47.226Z,100501.57
2023-03-16T04:56:13.710Z,100506.51
2023-03-16T04:58:40.233Z,100506.61
2023-03-16T05:01:06.736Z,100510.53
2023-03-16T05:03:33.222Z,100512.36
2023-03-16T05:05:59.780Z,100514.20
2023-03-16T05:08:26.363Z,100512.95
2023-03-16T05:11:00.129Z,100517.55
2023-03-16T05:13:26.648Z,100514.05
2023-03-16T05:15:53.432Z,100518.31
2023-03-16T05:18:21.176Z,100525.35
2023-03-16T05:20:52.762Z,100530.88
2023-03-16T05:23:19.665Z,100532.11
2023-03-16T05:25:47.340Z,100532.10
2023-03-16T05:28:14.089Z,100529.23
2023-03-16T05:30:41.236Z,100530.27
2023-03-16T05:33:08.343Z,100531.21
2023-03-16T05:35:35.154Z,100535.46
2023-03-16T05:38:01.716Z,100540.73
2023-03-16T05:40:28.404Z,100541.23
2023-03-16T05:42:56.608Z,100540.02
2023-03-16T05:45:23.558Z,100539.38
2023-03-16T05:47:50.324Z,100546.17
2023-03-16T05:50:17.506Z,100546.10
2023-03-16T05:52:45.329Z,100545.39
2023-03-16T05:55:14.108Z,100549.39
2023-03-16T05:57:40.752Z,100551.52
2023-03-16T06:00:10.713Z,100556.98
2023-03-16T06:02:37.555Z,100558.61
2023-03-16T06:05:04.389Z,100568.22
2023-03-16T06:07:30.876Z,100565.27
2023-03-16T06:09:57.353Z,100566.96
2023-03-16T06:12:24.756Z,100570.80
2023-03-16T06:14:51.238Z,100573.27
2023-03-16T06:17:17.700Z,100570.48
2023-03-16T06:19:44.144Z,100571.63
2023-03-16T06:22:10.890Z,100571.55
2023-03-16T06:24:37.426Z,100575.42
2023-03-16T06:27:04.462Z,100578.08
2023-03-16T06:29:30.936Z,100582.48
2023-03-16T06:31:57.508Z,100583.35
2023-03-16T06:34:24.081Z,100586.56
2023-03-16T06:36:50.538Z,100592.49
2023-03-16T06:39:17.069Z,100595.52
2023-03-16T06:41:43.545Z,100599.47
2023-03-16T06:44:10.487Z,100601.02
2023-03-16T06:46:37.583Z,100601.89
2023-03-16T06:49:04.446Z,100606.50
2023-03-16T06:51:34.501Z,100613.38
2023-03-16T06:54:01.057Z,100616.59
2023-03-16T06:56:27.576Z,100618.60
2023-03-16T06:58:54.214Z,100618.19
2023-03-16T07:01:21.001Z,100621.10
2023-03-16T07:03:47.500Z,100625.23
2023-03-16T07:06:14.018Z,100627.14
2023-03-16T07:08:40.540Z,100624.89
2023-03-16T07:11:06.967Z,100625.19
2023-03-16T07:13:33.432Z,100629.48
2023-03-16T07:15:59.889Z,100634.14
2023-03-16T07:18:26.365Z,100638.46
2023-03-16T07:20:54.347Z,100636.73
2023-03-16T07:23:21.090Z,100639.15
2023-03-16T07:25:47.584Z,100640.34
2023-03-16T07:28:14.077Z,100640.64
2023-03-16T07:30:43.958Z,100638.05
2023-03-16T07:33:12.583Z,100639.73
2023-03-16T07:35:39.175Z,100641.89
2023-03-16T07:38:05.676Z,100642.85
2023-03-16T07:40:32.352Z,100646.51
2023-03-16T07:42:58.853Z,100644.27
2023-03-16T07:45:26.020Z,100648.77
2023-03-16T07:47:52.701Z,100653.20
2023-03-16T07:50:19.218Z,100650.72
2023-03-16T07:52:45.833Z,100661.92
2023-03-16T07:55:13.257Z,100659.05
2023-03-16T07:57:39.816Z,100663.48
2023-03-16T08:00:06.869Z,100662.44
2023-03-16T08:02:33.385Z,100659.52
2023-03-16T08:05:00.021Z,100662.67
2023-03-16T08:07:26.500Z,100661.34
2023-03-16T08:09:53.266Z,100663.65
2023-03-16T08:12:19.753Z,100661.64
2023-03-16T08:14:46.372Z,100663.27
2023-03-16T08:17:12.895Z,100667.80
2023-03-16T08:19:39.607Z,100673.39
2023-03-16T08:22:06.419Z,100675.18
2023-03-16T08:24:33.088Z,100681.78
2023-03-16T08:27:00.127Z,100685.20
2023-03-16T08:29:26.872Z,100682.10
2023-03-16T08:31:54.175Z,100683.12
2023-03-16T08:34:20.695Z,100678.88
2023-03-16T08:36:47.207Z,100679.39
2023-03-16T08:39:13.708Z,100681.10
2023-03-16T08:41:40.241Z,100685.23
2023-03-16T08:44:06.781Z,100686.02
2023-03-16T08:46:33.444Z,100687.50
2023-03-16T08:49:00.086Z,100689.04
2023-03-16T08:51:26.870Z,100692.20
2023-03-16T08:53:53.560Z,100688.77
2023-03-16T08:56:20.094Z,100684.94
2023-03-16T08:58:46.734Z,100688.90
2023-03-16T09:01:15.547Z,100687.52
2023-03-16T09:03:42.180Z,100683.86
2023-03-16T09:06:10.463Z,100685.60
2023-03-16T09:08:37.697Z,100687.88
2023-03-16T09:11:07.095Z,100686.13
2023-03-16T09:13:34.821Z,100688.52
2023-03-16T09:16:01.665Z,100693.53
2023-03-16T09:18:28.478Z,100688.70
2023-03-16T09:21:00.146Z,100690.73
2023-03-16T09:23:28.038Z,100695.41
2023-03-16T09:25:58.319Z,100702.52
2023-03-16T09:28:25.264Z,100697.12
2023-03-16T09:30:51.740Z,100691.30
2023-03-16T09:33:18.239Z,100683.32
2023-03-16T09:35:44.729Z,100671.66
2023-03-16T09:38:11.261Z,100666.46
2023-03-16T09:40:38.140Z,100666.98
2023-03-16T09:43:07.410Z,100667.52
2023-03-16T09:45:43.007Z,100672.72
2023-03-16T09:48:10.639Z,100673.44
2023-03-16T09:50:48.349Z,100675.41
2023-03-16T09:53:32.311Z,100680.42
2023-03-16T09:56:03.646Z,100675.71
2023-03-16T09:58:30.768Z,100678.11
2023-03-16T10:01:23.626Z,100681.60
2023-03-16T10:03:56.334Z,100681.52
2023-03-16T10:06:23.078Z,100684.95
2023-03-16T10:09:17.472Z,100688.54
2023-03-16T10:11:49.765Z,100690.33
2023-03-16T10:14:50.172Z,100693.33
2023-03-16T10:17:21.241Z,100698.11
2023-03-16T10:19:52.807Z,100697.15
2023-03-16T10:22:25.118Z,100697.36
2023-03-16T10:25:13.436Z,100702.77
2023-03-16T10:27:42.416Z,100708.63
2023-03-16T10:30:15.133Z,100709.92
2023-03-16T10:32:41.789Z,100708.68
2023-03-16T10:35:30.406Z,100703.70
2023-03-16T10:37:57.821Z,100703.02
2023-03-16T10:40:24.462Z,100695.40
2023-03-16T10:42:50.968Z,100698.30
2023-03-16T10:45:23.645Z,100697.52
2023-03-16T10:47:50.143Z,100697.87
2023-03-16T10:50:23.158Z,100685.29
2023-03-16T10:52:49.749Z,100681.44
2023-03-16T10:55:28.767Z,100688.85
2023-03-16T10:57:56.487Z,100688.00
2023-03-16T11:00:27.764Z,100690.22
2023-03-16T11:02:55.528Z,100683.48
2023-03-16T11:05:27.169Z,100684.28
2023-03-16T11:07:56.667Z,100688.95
2023-03-16T11:10:31.336Z,100687.15
2023-03-16T11:13:03.827Z,100684.59
2023-03-16T11:15:39.124Z,100678.31
2023-03-16T11:18:09.588Z,100681.01
2023-03-16T11:20:36.189Z,100683.70
2023-03-16T11:23:02.688Z,100679.77
2023-03-16T11:25:29.397Z,100677.96
2023-03-16T11:28:17.330Z,100681.20
2023-03-16T11:31:25.573Z,100674.20
2023-03-16T11:33:52.227Z,100677.80
2023-03-16T11:36:56.305Z,100677.63
2023-03-16T11:39:45.946Z,100679.03
2023-03-16T11:42:23.586Z,100677.27
2023-03-16T11:44:52.910Z,100673.09
2023-03-16T11:47:57.950Z,100670.73
2023-03-16T11:51:01.866Z,100660.89
2023-03-16T11:53:52.337Z,100667.96
2023-03-16T11:56:21.814Z,100668.89
2023-03-16T11:59:25.986Z,100673.34
2023-03-16T12:02:12.550Z,100676.43
2023-03-16T12:05:00.855Z,100673.83
2023-03-16T12:07:56.542Z,100674.45
2023-03-16T12:10:30.949Z,100673.73
2023-03-16T12:13:26.778Z,100675.82
2023-03-16T12:15:58.575Z,100673.98
2023-03-16T12:18:58.778Z,100674.96
2023-03-16T12:21:31.650Z,100676.09
2023-03-16T12:24:10.471Z,100672.27
2023-03-16T12:26:42.110Z,100669.40
2023-03-16T12:29:42.090Z,100671.85
2023-03-16T12:32:25.657Z,100665.05
2023-03-16T12:35:07.114Z,100667.14
2023-03-16T12:37:51.373Z,100670.66
2023-03-16T12:40:39.102Z,100670.48
2023-03-16T12:43:17.782Z,100667.52
2023-03-16T12:46:07.658Z,100666.70
2023-03-16T12:48:40.545Z,100662.72
2023-03-16T12:51:07.229Z,100662.45
2023-03-16T12:53:44.752Z,100666.87
2023-03-16T12:56:44.503Z,100677.16
2023-03-16T12:59:17.741Z,100681.65
2023-03-16T13:01:44.821Z,100672.16
2023-03-16T13:04:30.383Z,100669.40
2023-03-16T13:07:27.570Z,100678.46
2023-03-16T13:09:59.160Z,100673.90
2023-03-16T13:12:29.936Z,100675.33
2023-03-16T13:14:56.497Z,100670.67
2023-03-16T13:17:29.363Z,100667.91
2023-03-16T13:20:02.891Z,100667.92
2023-03-16T13:22:41.036Z,100663.34
2023-03-16T13:25:29.407Z,100660.83
2023-03-16T13:27:59.268Z,100662.89
2023-03-16T13:30:29.457Z,100662.15
2023-03-16T13:33:14.868Z,100666.39
2023-03-16T13:35:41.686Z,100662.88
2023-03-16T13:38:14.541Z,100662.35
2023-03-16T13:40:46.898Z,100667.33
2023-03-16T13:43:17.684Z,100668.52
2023-03-16T13:45:44.340Z,100664.89
2023-03-16T13:48:14.989Z,100666.55
2023-03-16T13:50:41.941Z,100665.13
2023-03-16T13:53:31.907Z,100665.70
2023-03-16T13:56:00.849Z,100661.24
2023-03-16T13:58:35.371Z,100661.45
2023-03-16T14:01:04.330Z,100666.77
2023-03-16T14:03:33.743Z,100667.00
2023-03-16T14:06:00.265Z,100666.98
2023-03-16T14:08:26.928Z,100664.10
2023-03-16T14:10:55.042Z,100670.77
2023-03-16T14:13:27.788Z,100665.19
2023-03-16T14:16:11.154Z,100660.52
2023-03-16T14:18:43.829Z,100668.48
2023-03-16T14:21:24.929Z,100668.95
2023-03-16T14:24:13.159Z,100676.20
2023-03-16T14:26:45.976Z,100674.65
2023-03-16T14:29:31.468Z,100675.14
2023-03-16T14:31:59.338Z,100668.61
2023-03-16T14:34:30.351Z,100668.09
2023-03-16T14:37:06.578Z,100666.27
2023-03-16T14:39:33.105Z,100663.98
2023-03-16T14:42:02.615Z,100663.36
2023-03-16T14:44:32.568Z,100663.46
2023-03-16T14:47:00.320Z,100666.14
2023-03-16T14:49:28.424Z,100672.24
2023-03-16T14:52:25.780Z,100675.90
2023-03-16T14:54:52.294Z,100674.59
2023-03-16T14:57:18.881Z,100678.77
2023-03-16T14:59:45.598Z,100685.54
2023-03-16T15:02:24.403Z,100685.80
2023-03-16T15:04:51.309Z,100687.98
2023-03-16T15:07:22.212Z,100693.25
2023-03-16T15:09:50.242Z,100689.86
2023-03-16T15:12:18.411Z,100691.89
2023-03-16T15:14:46.127Z,100687.44
2023-03-16T15:17:13.239Z,100685.50
2023-03-16T15:19:40.033Z,100691.30
2023-03-16T15:22:07.385Z,100684.66
2023-03-16T15:24:34.229Z,100684.75
2023-03-16T15:27:03.364Z,100683.81
2023-03-16T15:29:30.450Z,100687.84
2023-03-16T15:31:57.592Z,100686.94
2023-03-16T15:34:24.429Z,100682.57
2023-03-16T15:36:52.462Z,100690.73
2023-03-16T15:39:25.061Z,100695.34
2023-03-16T15:41:51.777Z,100696.45
2023-03-16T15:44:18.786Z,100701.87
2023-03-16T15:46:45.694Z,100706.39
2023-03-16T15:49:15.931Z,100711.98
2023-03-16T15:51:43.112Z,100713.88
2023-03-16T15:54:12.442Z,100718.86
2023-03-16T15:56:53.772Z,100725.69
2023-03-16T15:59:25.316Z,100728.14
2023-03-16T16:01:56.154Z,100735.29
2023-03-16T16:04:23.736Z,100737.86
2023-03-16T16:06:52.416Z,100742.37
2023-03-16T16:09:29.039Z,100749.32
2023-03-16T16:11:56.720Z,100751.31
2023-03-16T16:14:28.682Z,100757.45
2023-03-16T16:16:56.316Z,100756.10
2023-03-16T16:19:27.852Z,100760.02
2023-03-16T16:21:54.587Z,100764.75
2023-03-16T16:24:21.817Z,100767.17
2023-03-16T16:26:53.758Z,100773.10
2023-03-16T16:29:48.305Z,100776.20
2023-03-16T16:32:24.605Z,100782.05
2023-03-16T16:35:03.890Z,100787.20
2023-03-16T16:37:31.887Z,100790.77
2023-03-16T16:40:00.574Z,100789.98
2023-03-16T16:42:28.092Z,100795.48
2023-03-16T16:44:57.572Z,100801.49
2023-03-16T16:47:25.158Z,100799.48
2023-03-16T16:49:52.893Z,100805.34
2023-03-16T16:52:21.408Z,100811.03
2023-03-16T16:54:48.643Z,100813.56
2023-03-16T16:57:18.719Z,100815.75
2023-03-16T16:59:48.186Z,100823.16
2023-03-16T17:02:24.024Z,100819.38
2023-03-16T17:04:51.121Z,100824.67
2023-03-16T17:07:18.400Z,100831.73
2023-03-16T17:09:48.846Z,100835.80
2023-03-16T17:12:45.491Z,100834.46
2023-03-16T17:15:21.925Z,100839.40
2023-03-16T17:17:51.228Z,100840.85
2023-03-16T17:20:23.001Z,100841.23
2023-03-16T17:22:53.513Z,100846.55
2023-03-16T17:25:21.275Z,100850.62
2023-03-16T17:27:49.695Z,100853.66
2023-03-16T17:30:28.298Z,100850.52
2023-03-16T17:33:05.727Z,100855.07
2023-03-16T17:35:32.797Z,100860.02
2023-03-16T17:38:00.061Z,100860.07
2023-03-16T17:40:26.837Z,100864.30
2023-03-16T17:42:54.752Z,100861.39
2023-03-16T17:45:35.058Z,100868.92
2023-03-16T17:48:01.664Z,100872.45
2023-03-16T17:50:28.674Z,100878.08
2023-03-16T17:52:55.697Z,100878.24
2023-03-16T17:55:23.668Z,100884.01
2023-03-16T17:57:55.203Z,100884.73
2023-03-16T18:00:32.492Z,100883.31
2023-03-16T18:02:59.191Z,100879.11
2023-03-16T18:05:31.678Z,100885.23
2023-03-16T18:08:18.042Z,100884.89
2023-03-16T18:10:45.804Z,100885.70
2023-03-16T18:13:31.789Z,100891.62
2023-03-16T18:15:59.932Z,100899.25
2023-03-16T18:18:30.906Z,100900.11
2023-03-16T18:20:57.599Z,100908.77
2023-03-16T18:23:27.110Z,100905.61
2023-03-16T18:25:56.727Z,100909.58
2023-03-16T18:28:23.512Z,100920.69
2023-03-16T18:30:52.335Z,100922.01
2023-03-16T18:33:24.063Z,100925.60
2023-03-16T18:35:52.963Z,100937.36
2023-03-16T18:38:28.153Z,100940.77
2023-03-16T18:40:54.792Z,100946.01
2023-03-16T18:43:21.663Z,100953.34
2023-03-16T18:45:49.141Z,100961.57
2023-03-16T18:48:20.597Z,100957.77
2023-03-16T18:50:47.685Z,100958.67
2023-03-16T18:53:17.142Z,100960.33
2023-03-16T18:55:43.908Z,100966.10
2023-03-16T18:58:21.621Z,100968.19
2023-03-16T19:00:57.403Z,100973.65
2023-03-16T19:03:30.460Z,100979.89
2023-03-16T19:06:00.171Z,100985.42
2023-03-16T19:08:28.304Z,100987.10
2023-03-16T19:11:01.100Z,100992.99
2023-03-16T19:13:28.165Z,100993.16
2023-03-16T19:15:56.224Z,100998.07
2023-03-16T19:18:23.099Z,101001.40
2023-03-16T19:20:50.794Z,101003.52
2023-03-16T19:23:22.785Z,101006.16
2023-03-16T19:25:50.477Z,101011.11
2023-03-16T19:28:29.203Z,101011.36
2023-03-16T19:30:57.404Z,101018.06
2023-03-16T19:33:26.064Z,101020.42
2023-03-16T19:35:54.260Z,101026.98
2023-03-16T19:38:22.502Z,101030.00
2023-03-16T19:40:58.879Z,101034.77
2023-03-16T19:43:27.216Z,101044.38
2023-03-16T19:45:55.318Z,101043.54
2023-03-16T19:48:33.835Z,101046.73
2023-03-16T19:51:00.832Z,101049.11
2023-03-16T19:53:27.661Z,101051.29
2023-03-16T19:55:54.609Z,101050.83
2023-03-16T19:58:26.968Z,101055.27
2023-03-16T20:00:54.022Z,101054.70
2023-03-16T20:03:20.982Z,101053.63
2023-03-16T20:05:47.584Z,101058.28
2023-03-16T20:08:26.389Z,101063.45
2023-03-16T20:10:59.388Z,101064.09
2023-03-16T20:13:26.005Z,101064.20
2023-03-16T20:15:52.711Z,101067.21
2023-03-16T20:18:21.760Z,101068.65
2023-03-16T20:20:48.387Z,101068.77
2023-03-16T20:23:29.528Z,101068.50
2023-03-16T20:26:01.388Z,101073.44
2023-03-16T20:28:35.610Z,101075.36
2023-03-16T20:31:03.109Z,101078.33
2023-03-16T20:33:29.834Z,101083.73
2023-03-16T20:35:56.785Z,101079.95
2023-03-16T20:38:23.696Z,101079.25
2023-03-16T20:40:53.414Z,101080.78
2023-03-16T20:43:26.997Z,101085.75
2023-03-16T20:45:56.094Z,101089.30
2023-03-16T20:48:23.104Z,101087.01
2023-03-16T20:50:49.617Z,101088.55
2023-03-16T20:53:16.091Z,101091.59
2023-03-16T20:55:43.014Z,101092.08
2023-03-16T20:58:22.799Z,101091.30
2023-03-16T21:00:50.619Z,101092.93
2023-03-16T21:03:17.093Z,101098.05
2023-03-16T21:05:44.482Z,101093.98
2023-03-16T21:08:10.947Z,101097.44
2023-03-16T21:10:37.497Z,101097.58
2023-03-16T21:13:06.218Z,101096.32
2023-03-16T21:15:33.529Z,101099.42
2023-03-16T21:18:05.683Z,101101.27
2023-03-16T21:20:34.591Z,101106.77
2023-03-16T21:23:02.015Z,101110.19
2023-03-16T21:25:32.210Z,101110.11
2023-03-16T21:28:02.397Z,101108.53
2023-03-16T21:30:32.448Z,101111.92
2023-03-16T21:33:00.293Z,101118.27
2023-03-16T21:35:33.145Z,101119.63
2023-03-16T21:38:01.396Z,101126.34
2023-03-16T21:40:28.319Z,101126.29
2023-03-16T21:42:55.030Z,101127.45
2023-03-16T21:45:21.592Z,101126.89
2023-03-16T21:47:48.160Z,101122.17
2023-03-16T21:50:26.630Z,101122.77
2023-03-16T21:52:53.104Z,101123.48
2023-03-16T21:55:24.032Z,101127.92
2023-03-16T21:57:50.895Z,101127.35
2023-03-16T22:00:24.701Z,101128.44
2023-03-16T22:02:54.817Z,101126.48
2023-03-16T22:05:36.605Z,101124.79
2023-03-16T22:08:19.382Z,101126.58
2023-03-16T22:10:49.859Z,101128.40
2023-03-16T22:13:17.826Z,101128.59
2023-03-16T22:15:45.908Z,101130.29
2023-03-16T22:18:27.320Z,101131.12
2023-03-16T22:20:55.656Z,101133.80
2023-03-16T22:23:33.278Z,101132.58
2023-03-16T22:26:04.591Z,101134.77
2023-03-16T22:28:31.591Z,101134.75
2023-03-16T22:31:00.118Z,101135.04
2023-03-16T22:33:30.351Z,101138.11
2023-03-16T22:36:14.070Z,101140.64
2023-03-16T22:38:42.106Z,101138.70
2023-03-16T22:41:12.834Z,101135.54
2023-03-16T22:43:42.444Z,101140.31
2023-03-16T22:46:24.493Z,101137.77
2023-03-16T22:48:51.972Z,101140.30
2023-03-16T22:51:26.517Z,101143.63
2023-03-16T22:53:57.148Z,101142.23
2023-03-16T22:56:24.308Z,101148.84
2023-03-16T22:58:58.611Z,101146.77
2023-03-16T23:01:39.496Z,101151.29
2023-03-16T23:04:17.808Z,101152.04
2023-03-16T23:06:45.074Z,101154.55
2023-03-16T23:09:16.314Z,101153.73
2023-03-16T23:11:44.485Z,101152.35
2023-03-16T23:14:16.374Z,101147.98
2023-03-16T23:16:43.958Z,101156.83
2023-03-16T23:19:25.043Z,101154.73
2023-03-16T23:21:53.792Z,101159.14
2023-03-16T23:24:20.885Z,101162.36
2023-03-16T23:26:47.918Z,101163.70
2023-03-16T23:29:14.512Z,101163.05
2023-03-16T23:31:40.998Z,101166.98
2023-03-16T23:34:15.895Z,101166.44
2023-03-16T23:36:42.863Z,101168.20
2023-03-16T23:39:10.280Z,101171.78
2023-03-16T23:41:39.161Z,101175.05
2023-03-16T23:44:07.166Z,101173.87
2023-03-16T23:46:34.733Z,101171.25
2023-03-16T23:49:05.476Z,101173.55
2023-03-16T23:51:36.870Z,101175.67
2023-03-16T23:54:31.110Z,101173.94
2023-03-16T23:56:57.774Z,101175.48
2023-03-16T23:59:25.616Z,101176.67
